Time;durP1;ratioP1;P1;durP2;ratioP2;P2;SDS_P1;SDS_P2;PMS_P1;PMS_P2;Temp;Humidity;BMP_temperature;BMP_pressure;BME280_temperature;BME280_humidity;BME280_pressure;Samples;Min_cycle;Max_cycle;Signal;HPM_P1;HPM_P2
2023/07/05 00:01:39;;;;;;;9.27;3.63;;;14.20;99.90;;;;;;5013845;28;20081;-62
2023/07/05 00:04:05;;;;;;;9.45;4.63;;;14.20;99.90;;;;;;5013335;28;20038;-62
2023/07/05 00:06:30;;;;;;;12.68;4.72;;;14.20;99.90;;;;;;5012827;28;20117;-62
2023/07/05 00:08:57;;;;;;;11.60;4.25;;;14.10;99.90;;;;;;5013260;28;20134;-62
2023/07/05 00:11:23;;;;;;;13.82;5.15;;;14.10;99.90;;;;;;5013156;28;20072;-62
2023/07/05 00:13:49;;;;;;;12.40;4.60;;;14.10;99.90;;;;;;5012487;28;20038;-62
2023/07/05 00:16:15;;;;;;;9.20;4.57;;;14.00;99.90;;;;;;4995702;28;20133;-62
2023/07/05 00:18:41;;;;;;;8.75;4.32;;;14.00;99.90;;;;;;4995485;28;20117;-62
2023/07/05 00:21:08;;;;;;;9.25;4.75;;;14.00;99.90;;;;;;5012437;28;20034;-62
2023/07/05 00:23:35;;;;;;;11.73;5.10;;;14.00;99.90;;;;;;5012906;28;20073;-62
2023/07/05 00:26:06;;;;;;;11.05;5.55;;;13.90;99.90;;;;;;5013049;28;20517;-62
2023/07/05 00:28:33;;;;;;;9.38;4.68;;;14.00;99.90;;;;;;4994758;28;20117;-62
2023/07/05 00:30:59;;;;;;;10.45;5.22;;;14.00;99.90;;;;;;5012919;28;20085;-62
2023/07/05 00:33:25;;;;;;;15.05;6.20;;;14.00;99.90;;;;;;4995242;28;20034;-62
2023/07/05 00:35:53;;;;;;;10.05;5.22;;;13.90;99.90;;;;;;5012253;28;20518;-62
2023/07/05 00:38:19;;;;;;;13.82;6.22;;;13.90;99.90;;;;;;5012984;28;20046;-62
2023/07/05 00:40:46;;;;;;;11.27;5.88;;;14.00;99.90;;;;;;5012878;28;20411;-62
2023/07/05 00:43:13;;;;;;;16.10;5.88;;;14.00;99.90;;;;;;4994581;28;20037;-62
2023/07/05 00:46:25;;;;;;;11.98;5.65;;;14.00;99.90;;;;;;4995352;28;20045;-62
2023/07/05 00:49:03;;;;;;;14.43;5.95;;;14.00;99.90;;;;;;5011121;28;20137;-62
2023/07/05 00:51:38;;;;;;;11.00;6.25;;;14.00;99.90;;;;;;5012688;28;20048;-62
2023/07/05 00:54:05;;;;;;;10.90;5.82;;;14.00;99.90;;;;;;5012489;28;20065;-62
2023/07/05 00:56:45;;;;;;;11.00;6.10;;;14.00;99.90;;;;;;4994198;28;20041;-61
2023/07/05 00:59:13;;;;;;;13.60;6.50;;;14.10;99.90;;;;;;4979035;28;20046;-62
2023/07/05 01:01:40;;;;;;;12.02;6.13;;;14.10;99.90;;;;;;5012435;28;20057;-62
2023/07/05 01:04:06;;;;;;;11.23;6.25;;;14.10;99.90;;;;;;5011844;28;20096;-62
2023/07/05 01:06:32;;;;;;;9.43;6.57;;;14.10;99.90;;;;;;4994472;28;20124;-62
2023/07/05 01:08:58;;;;;;;11.55;6.05;;;14.10;99.90;;;;;;5012228;28;20132;-62
2023/07/05 01:11:35;;;;;;;12.13;6.97;;;14.10;99.90;;;;;;5011851;28;20053;-62
2023/07/05 01:14:19;;;;;;;10.88;7.55;;;14.20;99.90;;;;;;5012405;28;20069;-62
2023/07/05 01:17:14;;;;;;;14.70;7.13;;;14.20;99.90;;;;;;4993873;28;20050;-62
2023/07/05 01:19:57;;;;;;;13.10;6.50;;;14.20;99.90;;;;;;4994619;28;20042;-62
2023/07/05 01:22:57;;;;;;;11.75;6.88;;;14.20;99.90;;;;;;4978133;28;20045;-62
2023/07/05 01:25:26;;;;;;;14.27;8.07;;;14.20;99.90;;;;;;4994115;28;20041;-62
2023/07/05 01:27:57;;;;;;;13.20;6.18;;;14.20;99.90;;;;;;5012277;28;20060;-62
2023/07/05 01:30:39;;;;;;;14.98;7.85;;;14.20;99.90;;;;;;4994740;28;20169;-61
2023/07/05 01:33:14;;;;;;;13.38;7.13;;;14.20;99.90;;;;;;5002193;28;20494;-62
2023/07/05 01:35:48;;;;;;;12.75;7.32;;;14.20;99.90;;;;;;4994593;28;20038;-62
2023/07/05 01:38:14;;;;;;;13.10;7.20;;;14.20;99.90;;;;;;5011570;28;20368;-62
2023/07/05 01:40:39;;;;;;;10.40;6.80;;;14.30;99.90;;;;;;5006464;28;20034;-62
2023/07/05 01:43:14;;;;;;;11.98;6.47;;;14.30;99.90;;;;;;4978361;28;20129;-61
2023/07/05 01:46:02;;;;;;;14.38;7.18;;;14.30;99.90;;;;;;5011326;28;20061;-61
2023/07/05 01:48:34;;;;;;;12.85;7.30;;;14.30;99.90;;;;;;5012015;28;20147;-61
2023/07/05 01:51:45;;;;;;;12.63;7.22;;;14.20;99.90;;;;;;5012281;28;20461;-61
2023/07/05 01:54:30;;;;;;;17.30;7.30;;;14.20;99.90;;;;;;5003750;28;20116;-62
2023/07/05 01:57:00;;;;;;;;;;;14.20;99.90;;;;;;5012412;28;20046;-62
2023/07/05 01:59:32;;;;;;;15.93;8.43;;;14.20;99.90;;;;;;5011230;28;20294;-61
2023/07/05 02:01:59;;;;;;;12.50;7.28;;;14.10;99.90;;;;;;5011610;28;20117;-61
2023/07/05 02:04:27;;;;;;;13.90;7.72;;;14.20;99.90;;;;;;4971170;28;20038;-62
2023/07/05 02:06:53;;;;;;;13.75;8.40;;;14.20;99.90;;;;;;4976935;28;20050;-61
2023/07/05 02:09:20;;;;;;;13.07;8.52;;;14.20;99.90;;;;;;5011826;28;20546;-61
2023/07/05 02:11:45;;;;;;;15.48;7.65;;;14.10;99.90;;;;;;5011860;28;20092;-62
2023/07/05 02:14:11;;;;;;;12.18;7.85;;;14.10;99.90;;;;;;4996189;28;20038;-61
2023/07/05 02:16:41;;;;;;;11.82;7.70;;;14.10;99.90;;;;;;4978759;28;20046;-62
2023/07/05 02:19:07;;;;;;;14.80;8.48;;;14.20;99.90;;;;;;4996125;28;20568;-62
2023/07/05 02:21:32;;;;;;;13.07;7.85;;;14.20;99.90;;;;;;4977500;28;20172;-61
2023/07/05 02:23:58;;;;;;;17.00;8.60;;;14.20;99.90;;;;;;4995491;28;20101;-62
2023/07/05 02:26:24;;;;;;;14.50;8.23;;;14.20;99.90;;;;;;4995935;28;20042;-61
2023/07/05 02:28:50;;;;;;;12.35;8.90;;;14.20;99.90;;;;;;4977257;28;20046;-62
2023/07/05 02:31:16;;;;;;;15.05;8.70;;;14.20;99.90;;;;;;4978159;28;20121;-62
2023/07/05 02:33:44;;;;;;;13.63;8.27;;;14.20;99.90;;;;;;4977837;28;20077;-62
2023/07/05 02:36:12;;;;;;;19.67;9.10;;;14.20;99.90;;;;;;4981096;28;20045;-62
2023/07/05 02:38:39;;;;;;;16.40;9.27;;;14.20;99.90;;;;;;4998045;28;20526;-62
2023/07/05 02:41:05;;;;;;;13.77;9.63;;;14.20;99.90;;;;;;4996824;28;20541;-62
2023/07/05 02:43:31;;;;;;;14.63;9.63;;;14.20;99.90;;;;;;5000402;28;20042;-62
2023/07/05 02:45:57;;;;;;;17.58;9.43;;;14.20;99.90;;;;;;4995444;28;20405;-61
2023/07/05 02:48:23;;;;;;;14.15;9.07;;;14.20;99.90;;;;;;4994478;28;20049;-62
2023/07/05 02:50:52;;;;;;;14.13;8.98;;;14.20;99.90;;;;;;4977624;28;20125;-61
2023/07/05 02:53:17;;;;;;;16.70;9.68;;;14.20;99.90;;;;;;4994917;28;20042;-62
2023/07/05 02:55:43;;;;;;;15.90;10.40;;;14.20;99.90;;;;;;5014087;28;20133;-61
2023/07/05 02:58:09;;;;;;;12.82;9.15;;;14.20;99.90;;;;;;4997705;28;20041;-61
2023/07/05 03:00:36;;;;;;;17.80;10.98;;;14.20;99.90;;;;;;5011025;28;20483;-62
2023/07/05 03:03:02;;;;;;;16.25;10.82;;;14.30;99.90;;;;;;4986078;28;20057;-61
2023/07/05 03:05:28;;;;;;;15.75;10.90;;;14.20;99.90;;;;;;4993706;28;20052;-61
2023/07/05 03:07:53;;;;;;;19.15;10.68;;;14.30;99.90;;;;;;4977494;28;20046;-61
2023/07/05 03:10:20;;;;;;;16.48;10.68;;;14.30;99.90;;;;;;4992860;28;20046;-62
2023/07/05 03:12:45;;;;;;;17.77;10.63;;;14.20;99.90;;;;;;4995134;28;20042;-63
2023/07/05 03:15:11;;;;;;;14.52;10.10;;;14.20;99.90;;;;;;5001717;28;20053;-62
2023/07/05 03:17:38;;;;;;;15.07;10.20;;;14.20;99.90;;;;;;4996353;28;20550;-62
2023/07/05 03:20:04;;;;;;;16.20;10.93;;;14.20;99.90;;;;;;5014533;28;20067;-62
2023/07/05 03:22:30;;;;;;;16.90;10.80;;;14.20;99.90;;;;;;4996852;28;20034;-62
2023/07/05 03:24:56;;;;;;;18.38;12.55;;;14.20;99.90;;;;;;4994477;28;20487;-62
2023/07/05 03:27:21;;;;;;;15.18;11.15;;;14.20;99.90;;;;;;4996485;28;20042;-62
2023/07/05 03:29:47;;;;;;;20.65;12.98;;;14.20;99.90;;;;;;5014045;28;20085;-62
2023/07/05 03:32:14;;;;;;;18.33;13.10;;;14.20;99.90;;;;;;4995393;28;20046;-61
2023/07/05 03:34:39;;;;;;;15.93;12.05;;;14.20;99.90;;;;;;4996215;28;20125;-62
2023/07/05 03:37:05;;;;;;;18.77;13.30;;;14.30;99.90;;;;;;5014333;28;20109;-62
2023/07/05 03:39:31;;;;;;;18.15;11.30;;;14.20;99.90;;;;;;4995588;28;20038;-61
2023/07/05 03:41:57;;;;;;;17.42;12.32;;;14.30;99.90;;;;;;5013639;28;20368;-62
2023/07/05 03:44:24;;;;;;;14.85;10.93;;;14.30;99.90;;;;;;4995800;28;20085;-62
2023/07/05 03:46:50;;;;;;;17.60;12.05;;;14.40;99.90;;;;;;5013708;28;20084;-62
2023/07/05 03:49:17;;;;;;;17.23;11.95;;;14.30;99.90;;;;;;4996198;28;20169;-62
2023/07/05 03:51:43;;;;;;;15.73;11.90;;;14.40;99.90;;;;;;4995498;28;20125;-62
2023/07/05 03:54:09;;;;;;;16.88;11.55;;;14.40;99.90;;;;;;5013632;28;20044;-62
2023/07/05 03:56:35;;;;;;;19.58;11.52;;;14.40;99.90;;;;;;4995799;28;20042;-62
2023/07/05 03:59:01;;;;;;;15.90;11.35;;;14.50;99.90;;;;;;5012711;28;20117;-62
2023/07/05 04:01:28;;;;;;;14.07;11.18;;;14.50;99.90;;;;;;5013422;28;20117;-62
2023/07/05 04:03:57;;;;;;;16.80;10.82;;;14.50;99.90;;;;;;4995752;28;20084;-62
2023/07/05 04:06:25;;;;;;;15.45;10.05;;;14.50;99.90;;;;;;4995012;28;20558;-62
2023/07/05 04:08:51;;;;;;;13.15;10.50;;;14.50;99.90;;;;;;5013398;28;20057;-62
2023/07/05 04:11:17;;;;;;;15.35;10.38;;;14.60;99.90;;;;;;5013060;28;20042;-62
2023/07/05 04:13:44;;;;;;;14.55;10.43;;;14.60;99.90;;;;;;4994749;28;20041;-62
2023/07/05 04:16:16;;;;;;;14.40;9.85;;;14.60;99.90;;;;;;4995881;28;20055;-63
2023/07/05 04:18:43;;;;;;;15.98;10.50;;;14.70;99.90;;;;;;4995611;28;20049;-63
2023/07/05 04:21:10;;;;;;;16.92;10.35;;;14.70;99.90;;;;;;4995553;28;20145;-62
2023/07/05 04:23:37;;;;;;;14.38;10.35;;;14.70;99.90;;;;;;4995527;28;20394;-62
2023/07/05 04:26:12;;;;;;;15.68;10.35;;;14.70;99.90;;;;;;5013090;28;20045;-62
2023/07/05 04:28:39;;;;;;;15.82;10.82;;;14.80;99.90;;;;;;4994832;28;20096;-63
2023/07/05 04:31:09;;;;;;;13.75;9.70;;;14.80;99.90;;;;;;5013506;28;20034;-62
2023/07/05 04:33:35;;;;;;;16.05;11.15;;;14.80;99.90;;;;;;4994454;28;20042;-62
2023/07/05 04:36:02;;;;;;;14.23;10.18;;;14.80;99.90;;;;;;4995289;28;20052;-62
2023/07/05 04:38:28;;;;;;;14.32;9.35;;;14.90;99.90;;;;;;4978959;28;20048;-63
2023/07/05 04:40:57;;;;;;;13.90;9.48;;;14.90;99.90;;;;;;4994425;28;20542;-62
2023/07/05 04:43:23;;;;;;;14.80;8.82;;;14.90;99.90;;;;;;5012401;28;20085;-62
2023/07/05 04:45:50;;;;;;;10.63;7.32;;;14.90;99.90;;;;;;4995133;28;20084;-62
2023/07/05 04:48:16;;;;;;;13.75;9.02;;;15.00;99.90;;;;;;5011876;28;20049;-62
2023/07/05 04:50:43;;;;;;;12.90;8.82;;;15.00;99.90;;;;;;4995333;28;20042;-62
2023/07/05 04:53:08;;;;;;;13.90;7.85;;;15.00;99.90;;;;;;5012647;28;20037;-62
2023/07/05 04:55:34;;;;;;;10.05;6.45;;;15.00;99.90;;;;;;4994253;28;20092;-62
2023/07/05 04:58:03;;;;;;;10.95;5.63;;;15.10;99.90;;;;;;5012563;28;20077;-62
2023/07/05 05:00:29;;;;;;;7.82;4.72;;;15.00;99.90;;;;;;5012665;28;20100;-63
2023/07/05 05:02:55;;;;;;;8.18;4.32;;;15.00;99.90;;;;;;4994193;28;20045;-62
2023/07/05 05:05:20;;;;;;;7.43;3.80;;;14.90;99.90;;;;;;5012389;28;20045;-62
2023/07/05 05:07:46;;;;;;;8.23;4.40;;;14.90;99.90;;;;;;4994782;28;20046;-62
2023/07/05 05:10:12;;;;;;;8.85;4.45;;;14.90;99.90;;;;;;5011549;28;20506;-62
2023/07/05 05:12:37;;;;;;;7.72;4.10;;;14.80;99.90;;;;;;5012655;28;20419;-62
2023/07/05 05:15:03;;;;;;;9.25;4.40;;;14.90;99.90;;;;;;4994617;28;20117;-62
2023/07/05 05:17:29;;;;;;;8.10;4.03;;;14.90;99.90;;;;;;4993721;28;20054;-62
2023/07/05 05:19:55;;;;;;;7.18;3.83;;;14.90;99.90;;;;;;4994709;28;20053;-63
2023/07/05 05:22:22;;;;;;;10.48;4.10;;;14.90;99.90;;;;;;5012101;28;20045;-62
2023/07/05 05:24:47;;;;;;;9.40;3.92;;;14.90;99.90;;;;;;4993853;28;20053;-63
2023/07/05 05:27:13;;;;;;;8.95;4.30;;;14.90;99.90;;;;;;4994500;28;20049;-62
2023/07/05 05:29:39;;;;;;;9.27;5.07;;;14.90;99.90;;;;;;5012623;28;20041;-62
2023/07/05 05:32:05;;;;;;;8.27;4.22;;;14.90;99.90;;;;;;4994261;28;20112;-62
2023/07/05 05:34:30;;;;;;;8.10;3.92;;;14.90;99.90;;;;;;4994644;28;20399;-62
2023/07/05 05:36:56;;;;;;;7.03;3.45;;;14.80;99.90;;;;;;4993460;28;20097;-62
2023/07/05 05:39:26;;;;;;;8.00;4.45;;;14.80;99.90;;;;;;4978331;28;20451;-62
2023/07/05 05:41:51;;;;;;;8.52;4.57;;;14.70;99.90;;;;;;5012019;28;20480;-62
2023/07/05 05:44:20;;;;;;;10.15;4.78;;;14.70;99.90;;;;;;5011423;28;20049;-62
2023/07/05 05:46:45;;;;;;;7.22;4.13;;;14.70;99.90;;;;;;4994263;28;20509;-62
2023/07/05 05:49:11;;;;;;;9.40;4.72;;;14.60;99.90;;;;;;5015304;28;20038;-62
2023/07/05 05:51:37;;;;;;;8.23;5.13;;;14.60;99.90;;;;;;4981553;28;20065;-62
2023/07/05 05:54:02;;;;;;;8.05;4.40;;;14.60;99.90;;;;;;5015866;28;20169;-62
2023/07/05 05:56:28;;;;;;;9.18;4.43;;;14.60;99.90;;;;;;5015545;28;20069;-62
2023/07/05 05:58:54;;;;;;;7.28;4.43;;;14.60;99.90;;;;;;5014922;28;20045;-62
2023/07/05 06:01:19;;;;;;;7.70;4.60;;;14.60;99.90;;;;;;4998435;28;20483;-62
2023/07/05 06:03:46;;;;;;;8.75;5.30;;;14.60;99.90;;;;;;5014654;28;20089;-62
2023/07/05 06:06:11;;;;;;;9.20;4.22;;;14.60;99.90;;;;;;5013816;28;20037;-62
2023/07/05 06:08:37;;;;;;;7.35;4.75;;;14.70;99.90;;;;;;5015542;28;20494;-62
2023/07/05 06:11:04;;;;;;;7.70;4.28;;;14.70;99.90;;;;;;5015855;28;20407;-61
2023/07/05 06:13:31;;;;;;;7.65;4.32;;;14.70;99.90;;;;;;5014166;28;20037;-61
2023/07/05 06:16:01;;;;;;;8.90;4.95;;;14.70;99.90;;;;;;4997291;28;20053;-62
2023/07/05 06:18:27;;;;;;;8.98;4.63;;;14.70;99.90;;;;;;5010693;28;20042;-62
2023/07/05 06:20:53;;;;;;;6.68;4.13;;;14.70;99.90;;;;;;5000227;28;20042;-61
2023/07/05 06:23:21;;;;;;;8.85;4.32;;;14.70;99.90;;;;;;4990968;28;20108;-61
2023/07/05 06:25:48;;;;;;;6.80;4.55;;;14.70;99.90;;;;;;4996729;28;20503;-61
2023/07/05 06:28:15;;;;;;;8.32;5.05;;;14.60;99.90;;;;;;4996924;28;20135;-61
2023/07/05 06:30:41;;;;;;;8.02;4.30;;;14.70;99.90;;;;;;4997163;28;20104;-61
2023/07/05 06:33:07;;;;;;;7.72;4.13;;;14.70;99.90;;;;;;4996111;28;20044;-61
2023/07/05 06:35:33;;;;;;;9.38;4.22;;;14.80;99.90;;;;;;4997041;28;20407;-62
2023/07/05 06:37:59;;;;;;;7.30;3.65;;;14.90;99.90;;;;;;5014805;28;20049;-61
2023/07/05 06:40:24;;;;;;;6.53;3.92;;;15.10;99.90;;;;;;5014292;28;20040;-62
2023/07/05 06:42:51;;;;;;;8.30;3.72;;;15.20;99.90;;;;;;4992423;28;20380;-62
2023/07/05 06:45:17;;;;;;;8.05;4.75;;;15.40;99.90;;;;;;5012990;28;20057;-61
2023/07/05 06:47:45;;;;;;;7.38;3.95;;;15.60;99.90;;;;;;5012169;28;20042;-62
2023/07/05 06:50:12;;;;;;;13.07;3.65;;;15.70;99.90;;;;;;4994613;28;20046;-63
2023/07/05 06:52:38;;;;;;;9.98;3.22;;;15.70;99.90;;;;;;5012729;28;20042;-62
2023/07/05 06:55:04;;;;;;;8.07;4.07;;;15.70;99.90;;;;;;5010965;28;20120;-62
2023/07/05 06:57:29;;;;;;;7.30;3.03;;;15.60;99.90;;;;;;5012601;28;20129;-61
2023/07/05 06:59:55;;;;;;;7.07;3.28;;;15.60;99.90;;;;;;5012479;28;20463;-61
2023/07/05 07:02:21;;;;;;;7.32;3.30;;;15.60;99.90;;;;;;5010999;28;20049;-61
2023/07/05 07:04:46;;;;;;;6.45;2.20;;;15.70;99.90;;;;;;5012448;28;20042;-61
2023/07/05 07:07:13;;;;;;;7.07;2.75;;;15.70;99.90;;;;;;4994562;28;20045;-60
2023/07/05 07:09:40;;;;;;;4.72;2.20;;;15.80;99.90;;;;;;5011838;28;20038;-60
2023/07/05 07:12:07;;;;;;;5.47;2.47;;;16.00;99.90;;;;;;4994041;28;20036;-60
2023/07/05 07:14:33;;;;;;;7.00;2.53;;;16.10;99.90;;;;;;5011779;28;20113;-61
2023/07/05 07:16:59;;;;;;;6.95;2.40;;;16.10;99.90;;;;;;4993525;28;20069;-61
2023/07/05 07:19:25;;;;;;;6.68;2.70;;;16.10;99.90;;;;;;4992999;28;20458;-60
2023/07/05 07:21:51;;;;;;;7.30;2.53;;;16.00;99.90;;;;;;5012093;28;20048;-61
2023/07/05 07:24:17;;;;;;;5.40;2.45;;;15.90;99.90;;;;;;4993676;28;20045;-61
2023/07/05 07:26:43;;;;;;;4.50;2.22;;;15.70;99.90;;;;;;4993891;28;20132;-61
2023/07/05 07:29:10;;;;;;;6.75;3.40;;;15.70;99.90;;;;;;4992108;28;20574;-60
2023/07/05 07:31:36;;;;;;;6.07;2.97;;;15.50;99.90;;;;;;5005316;28;20550;-61
2023/07/05 07:34:02;;;;;;;6.00;3.10;;;15.40;99.90;;;;;;4978279;28;20033;-61
2023/07/05 07:36:33;;;;;;;5.60;2.72;;;15.30;99.90;;;;;;4992112;28;20120;-61
2023/07/05 07:38:59;;;;;;;6.72;2.90;;;15.10;99.90;;;;;;4985151;28;20057;-60
2023/07/05 07:41:28;;;;;;;6.25;2.25;;;14.90;99.90;;;;;;4991463;28;20062;-61
2023/07/05 07:44:00;;;;;;;4.32;1.73;;;14.60;99.90;;;;;;4990951;28;20097;-61
2023/07/05 07:46:27;;;;;;;3.13;0.75;;;14.30;99.90;;;;;;4975058;28;20085;-60
2023/07/05 07:48:56;;;;;;;1.55;0.68;;;14.00;99.90;;;;;;4974063;28;20060;-61
2023/07/05 07:51:24;;;;;;;2.72;0.90;;;13.70;99.90;;;;;;4969447;28;20046;-60
2023/07/05 07:53:51;;;;;;;2.47;0.90;;;13.40;99.90;;;;;;4996598;28;20050;-62
2023/07/05 07:56:18;;;;;;;2.13;0.95;;;13.20;99.90;;;;;;5002424;28;20088;-61
2023/07/05 07:58:48;;;;;;;2.30;0.95;;;13.10;99.90;;;;;;4992065;28;20085;-61
2023/07/05 08:01:16;;;;;;;6.25;1.63;;;13.00;99.90;;;;;;4992555;28;20105;-61
2023/07/05 08:03:42;;;;;;;4.00;1.23;;;13.00;99.90;;;;;;4990381;28;20037;-61
2023/07/05 08:06:08;;;;;;;4.40;1.27;;;13.00;99.90;;;;;;5009680;28;20046;-61
2023/07/05 08:08:36;;;;;;;4.47;1.20;;;12.90;99.90;;;;;;5009913;28;20078;-61
2023/07/05 08:11:02;;;;;;;1.85;0.80;;;12.80;99.90;;;;;;4992253;28;20479;-61
2023/07/05 08:13:30;;;;;;;3.10;1.10;;;12.70;99.90;;;;;;4990530;28;20041;-61
2023/07/05 08:15:56;;;;;;;1.92;0.80;;;12.60;99.90;;;;;;4992535;28;20141;-62
2023/07/05 08:18:23;;;;;;;1.90;0.73;;;12.50;99.90;;;;;;4992250;28;20097;-61
2023/07/05 08:20:48;;;;;;;2.03;0.95;;;12.40;99.90;;;;;;4992341;28;20045;-62
2023/07/05 08:23:14;;;;;;;2.40;0.80;;;12.30;99.90;;;;;;5009353;28;20050;-62
2023/07/05 08:25:42;;;;;;;3.30;0.95;;;12.30;99.90;;;;;;4992439;28;20038;-62
2023/07/05 08:28:11;;;;;;;4.15;1.13;;;12.30;99.90;;;;;;5009205;28;20406;-62
2023/07/05 08:30:41;;;;;;;2.83;1.13;;;12.30;99.90;;;;;;4975790;28;20030;-61
2023/07/05 08:33:06;;;;;;;3.28;1.10;;;12.30;99.90;;;;;;4973258;28;20038;-61
2023/07/05 08:35:33;;;;;;;3.20;0.85;;;12.30;99.90;;;;;;5004848;28;20052;-61
2023/07/05 08:38:02;;;;;;;3.28;1.00;;;12.30;99.90;;;;;;5009422;28;20049;-62
2023/07/05 08:40:33;;;;;;;2.95;1.10;;;12.30;99.90;;;;;;4991420;28;20130;-61
2023/07/05 08:43:09;;;;;;;2.65;1.00;;;12.40;99.90;;;;;;5004545;28;20046;-61
2023/07/05 08:45:42;;;;;;;3.28;1.10;;;12.30;99.90;;;;;;4988086;28;20053;-61
2023/07/05 08:48:11;;;;;;;4.88;1.33;;;12.30;99.90;;;;;;5002572;28;20050;-61
2023/07/05 08:50:44;;;;;;;3.60;1.20;;;12.30;99.90;;;;;;4992107;28;20554;-61
2023/07/05 08:53:15;;;;;;;3.92;1.10;;;12.30;99.90;;;;;;4986235;28;20053;-62
2023/07/05 08:56:02;;;;;;;3.92;1.30;;;12.30;99.90;;;;;;4987984;28;20393;-62
2023/07/05 08:58:51;;;;;;;8.35;1.52;;;12.30;99.90;;;;;;4992128;28;20046;-62
2023/07/05 09:01:29;;;;;;;5.07;1.48;;;12.40;99.90;;;;;;4996529;28;20050;-62
2023/07/05 09:03:56;;;;;;;6.78;1.63;;;12.40;99.90;;;;;;4983144;28;20062;-61
2023/07/05 09:06:38;;;;;;;7.45;1.95;;;12.50;99.90;;;;;;4987063;28;20038;-62
2023/07/05 09:09:09;;;;;;;7.22;2.53;;;12.60;99.90;;;;;;4978318;28;20096;-62
2023/07/05 09:12:17;;;;;;;8.02;2.22;;;12.70;99.90;;;;;;4998720;28;20065;-61
2023/07/05 09:15:13;;;;;;;9.65;2.45;;;12.80;99.90;;;;;;4989691;28;20561;-61
2023/07/05 09:17:45;;;;;;;;;;;13.00;99.90;;;;;;4992191;28;20045;-62
2023/07/05 09:20:24;;;;;;;12.25;3.05;;;13.80;99.90;;;;;;5005628;28;19925;-61
2023/07/05 09:22:51;;;;;;;8.65;3.08;;;14.30;99.90;;;;;;4971161;28;20048;-62
2023/07/05 09:25:22;;;;;;;13.20;3.15;;;14.50;99.90;;;;;;5005852;28;20089;-61
2023/07/05 09:27:55;;;;;;;6.25;1.55;;;14.70;99.90;;;;;;4978762;28;20497;-61
2023/07/05 09:30:25;;;;;;;5.73;1.50;;;14.70;99.90;;;;;;4990780;28;20099;-62
2023/07/05 09:33:10;;;;;;;6.72;2.17;;;14.70;99.90;;;;;;5008630;28;20041;-62
2023/07/05 09:35:37;;;;;;;7.15;2.00;;;14.70;99.90;;;;;;4989808;28;20033;-61
2023/07/05 09:38:17;;;;;;;5.70;1.50;;;14.60;99.90;;;;;;4999265;28;20046;-62
2023/07/05 09:40:47;;;;;;;7.38;1.73;;;14.70;99.90;;;;;;4983086;28;20050;-61
2023/07/05 09:43:32;;;;;;;4.70;1.65;;;14.80;99.90;;;;;;4984418;28;20067;-61
2023/07/05 09:46:04;;;;;;;5.32;1.52;;;14.90;99.90;;;;;;5009184;28;20101;-62
2023/07/05 09:48:35;;;;;;;6.40;1.40;;;14.90;99.90;;;;;;4971654;28;20539;-61
2023/07/05 09:51:03;;;;;;;4.57;1.30;;;14.90;99.90;;;;;;4990610;28;20044;-61
2023/07/05 09:53:49;;;;;;;4.00;0.98;;;14.80;99.90;;;;;;5008304;28;20037;-61
2023/07/05 09:56:27;;;;;;;3.28;0.82;;;14.50;99.90;;;;;;5009142;28;20041;-61
2023/07/05 09:59:07;;;;;;;3.33;1.13;;;14.40;99.90;;;;;;4999644;28;20068;-61
2023/07/05 10:01:37;;;;;;;3.40;0.90;;;14.20;99.90;;;;;;4973719;28;20061;-61
2023/07/05 10:04:05;;;;;;;3.38;1.00;;;14.20;99.90;;;;;;4975110;28;20562;-61
2023/07/05 10:06:31;;;;;;;2.88;1.15;;;14.40;99.90;;;;;;4984132;28;20042;-61
2023/07/05 10:09:07;;;;;;;5.88;1.40;;;14.40;99.90;;;;;;4989945;28;20061;-61
2023/07/05 10:11:33;;;;;;;10.13;2.35;;;14.50;99.90;;;;;;4987384;28;20046;-61
2023/07/05 10:14:05;;;;;;;4.68;2.00;;;14.40;99.90;;;;;;4986400;28;20084;-61
2023/07/05 10:16:48;;;;;;;5.82;2.28;;;14.40;99.90;;;;;;4990601;28;20756;-61
2023/07/05 10:19:26;;;;;;;3.85;1.00;;;14.50;99.90;;;;;;4978848;28;20042;-61
2023/07/05 10:21:56;;;;;;;5.30;1.98;;;14.60;99.90;;;;;;5004957;28;20042;-62
2023/07/05 10:24:22;;;;;;;2.65;0.80;;;14.60;99.90;;;;;;5005931;28;20623;-60
2023/07/05 10:26:59;;;;;;;5.38;1.00;;;14.60;99.90;;;;;;4982011;28;20137;-60
2023/07/05 10:29:26;;;;;;;4.90;1.13;;;14.60;99.90;;;;;;4982721;28;20034;-61
2023/07/05 10:31:54;;;;;;;5.25;1.23;;;14.60;99.90;;;;;;4973863;28;20042;-61
2023/07/05 10:34:25;;;;;;;6.72;1.50;;;14.70;99.90;;;;;;5009020;28;20084;-61
2023/07/05 10:36:51;;;;;;;4.90;1.27;;;14.80;99.90;;;;;;4993416;28;20088;-60
2023/07/05 10:39:26;;;;;;;6.88;1.67;;;15.00;99.90;;;;;;4994166;28;20065;-60
2023/07/05 10:41:57;;;;;;;7.68;3.35;;;15.10;99.90;;;;;;5010460;28;20050;-60
2023/07/05 10:44:32;;;;;;;5.18;1.35;;;15.40;99.90;;;;;;4994360;28;20398;-60
2023/07/05 10:46:59;;;;;;;3.60;1.55;;;15.70;99.90;;;;;;4995411;28;20104;-60
2023/07/05 10:49:28;;;;;;;2.85;1.30;;;15.90;99.90;;;;;;5008829;28;20514;-61
2023/07/05 10:51:57;;;;;;;2.83;0.75;;;16.10;99.90;;;;;;5012210;28;20041;-60
2023/07/05 10:54:39;;;;;;;6.57;1.85;;;16.20;99.90;;;;;;4986126;28;20054;-60
2023/07/05 10:57:31;;;;;;;4.80;1.90;;;16.30;99.90;;;;;;5011929;28;20095;-61
2023/07/05 11:00:14;;;;;;;3.22;1.13;;;16.60;99.90;;;;;;4994718;28;20089;-60
2023/07/05 11:02:56;;;;;;;3.38;1.10;;;16.80;99.90;;;;;;4989539;28;20088;-60
2023/07/05 11:05:23;;;;;;;8.38;1.30;;;17.00;99.90;;;;;;4994639;28;20557;-60
2023/07/05 11:07:52;;;;;;;3.33;1.13;;;17.10;99.90;;;;;;4994101;28;20105;-60
2023/07/05 11:10:19;;;;;;;3.83;1.10;;;17.00;99.90;;;;;;5012331;28;20105;-60
2023/07/05 11:12:47;;;;;;;6.85;1.42;;;17.00;99.90;;;;;;4994315;28;20038;-60
2023/07/05 11:15:15;;;;;;;2.25;0.90;;;17.00;99.90;;;;;;4996021;28;20115;-60
2023/07/05 11:17:42;;;;;;;7.50;1.55;;;16.90;99.90;;;;;;4996208;28;20107;-60
2023/07/05 11:20:30;;;;;;;4.97;1.10;;;16.80;99.90;;;;;;4989004;28;20125;-60
2023/07/05 11:22:55;;;;;;;5.15;1.15;;;16.80;99.90;;;;;;4993122;28;20045;-60
2023/07/05 11:25:58;;;;;;;5.40;1.50;;;16.90;99.90;;;;;;4993805;28;20038;-60
2023/07/05 11:28:30;;;;;;;6.97;1.40;;;16.90;99.90;;;;;;4993234;28;20064;-60
2023/07/05 11:30:56;;;;;;;6.32;1.48;;;16.90;99.90;;;;;;4971124;28;20401;-60
2023/07/05 11:33:22;;;;;;;8.13;1.58;;;17.00;99.90;;;;;;5011309;28;20033;-60
2023/07/05 11:35:54;;;;;;;5.90;1.30;;;17.00;99.90;;;;;;4974700;28;20104;-60
2023/07/05 11:38:55;;;;;;;3.80;1.35;;;17.00;99.90;;;;;;4993460;28;20446;-60
2023/07/05 11:41:32;;;;;;;7.50;2.00;;;17.00;99.90;;;;;;5011007;28;20100;-60
2023/07/05 11:44:21;;;;;;;5.85;1.60;;;17.00;99.90;;;;;;4992705;28;20050;-60
2023/07/05 11:46:48;;;;;;;13.57;2.40;;;17.00;99.90;;;;;;4992758;28;20049;-60
2023/07/05 11:49:20;;;;;;;6.63;2.10;;;16.80;99.90;;;;;;4993594;28;20060;-60
2023/07/05 11:51:50;;;;;;;7.85;2.40;;;16.50;99.90;;;;;;4990077;28;20052;-61
2023/07/05 11:54:18;;;;;;;10.50;2.83;;;16.10;99.90;;;;;;4963624;28;20054;-60
2023/07/05 11:56:45;;;;;;;13.93;3.55;;;15.80;99.90;;;;;;4978067;28;20041;-61
2023/07/05 11:59:16;;;;;;;12.95;4.18;;;15.40;99.90;;;;;;4977456;28;20042;-61
2023/07/05 12:01:42;;;;;;;12.77;3.33;;;15.20;99.90;;;;;;4980606;28;20046;-61
2023/07/05 12:04:21;;;;;;;11.23;3.75;;;15.00;99.90;;;;;;4990756;28;20085;-61
2023/07/05 12:06:48;;;;;;;16.05;4.30;;;14.80;99.90;;;;;;4990327;28;20632;-61
2023/07/05 12:09:38;;;;;;;17.52;4.55;;;14.70;99.90;;;;;;4973859;28;20044;-61
2023/07/05 12:12:04;;;;;;;15.60;5.18;;;14.50;99.90;;;;;;4988323;28;20037;-61
2023/07/05 12:14:30;;;;;;;14.93;4.38;;;14.40;99.90;;;;;;4992664;28;20046;-60
2023/07/05 12:16:56;;;;;;;16.73;4.05;;;14.30;99.90;;;;;;4977721;28;20038;-60
2023/07/05 12:19:30;;;;;;;12.68;3.70;;;14.30;99.90;;;;;;4992101;28;20060;-61
2023/07/05 12:22:09;;;;;;;13.77;3.30;;;14.30;99.90;;;;;;5010764;28;20502;-61
2023/07/05 12:24:47;;;;;;;16.73;4.30;;;14.20;99.90;;;;;;4976476;28;20038;-61
2023/07/05 12:27:32;;;;;;;14.10;3.47;;;14.20;99.90;;;;;;4970275;28;20125;-62
2023/07/05 12:30:00;;;;;;;11.80;3.15;;;14.10;99.90;;;;;;4995894;28;20042;-62
2023/07/05 12:32:28;;;;;;;9.65;2.80;;;14.10;99.90;;;;;;5008686;28;20046;-63
2023/07/05 12:35:12;;;;;;;7.97;2.30;;;14.00;99.90;;;;;;5009827;28;20108;-63
2023/07/05 12:37:37;;;;;;;8.70;2.33;;;13.90;99.90;;;;;;5009202;28;20037;-61
2023/07/05 12:40:20;;;;;;;11.95;3.13;;;13.70;99.90;;;;;;4980077;28;20394;-62
2023/07/05 12:42:49;;;;;;;14.73;3.20;;;13.70;99.90;;;;;;4972159;28;20049;-62
2023/07/05 12:45:29;;;;;;;11.35;3.42;;;13.60;99.90;;;;;;4995037;28;20041;-63
2023/07/05 12:47:55;;;;;;;11.00;2.88;;;13.50;99.90;;;;;;4988483;28;20084;-62
2023/07/05 12:50:22;;;;;;;15.23;3.85;;;13.40;99.90;;;;;;4991585;28;20042;-62
2023/07/05 12:53:10;;;;;;;13.48;4.35;;;13.40;99.90;;;;;;5009016;28;20088;-62
2023/07/05 12:55:39;;;;;;;14.27;4.05;;;13.30;99.90;;;;;;4996444;28;20053;-61